createdAt,value
2023-02-22T00:00:10.816Z,71.5
2023-02-22T00:02:37.498Z,71.6
2023-02-22T00:05:02.759Z,71.7
2023-02-22T00:07:29.440Z,71.6
2023-02-22T00:09:54.664Z,71.5
2023-02-22T00:14:48.039Z,70.1
2023-02-22T00:17:14.722Z,70.1
2023-02-22T00:19:41.408Z,70.5
2023-02-22T00:22:08.093Z,70.3
2023-02-22T00:24:34.775Z,69.7
2023-02-22T00:27:01.493Z,70.1
2023-02-22T00:29:28.161Z,69.5
2023-02-22T00:31:54.844Z,69.4
2023-02-22T00:34:21.520Z,68.9
2023-02-22T00:36:48.199Z,68.7
2023-02-22T00:39:14.895Z,68.6
2023-02-22T00:41:41.577Z,68
2023-02-22T00:44:08.270Z,68.9
2023-02-22T00:46:33.479Z,69.7
2023-02-22T00:49:00.158Z,70.1
2023-02-22T00:51:26.860Z,69.7
2023-02-22T00:53:53.534Z,69.8
2023-02-22T00:56:20.205Z,69.3
2023-02-22T00:58:46.898Z,68.5
2023-02-22T01:01:13.592Z,68.2
2023-02-22T01:03:40.573Z,68.7
2023-02-22T01:06:06.960Z,68.9
2023-02-22T01:11:00.340Z,70.2
2023-02-22T01:13:27.010Z,70.8
2023-02-22T01:15:53.700Z,70.2
2023-02-22T01:18:20.385Z,69.9
2023-02-22T01:20:47.064Z,70.5
2023-02-22T01:23:12.298Z,70.7
2023-02-22T01:25:38.988Z,70.7
2023-02-22T01:28:05.669Z,70
2023-02-22T01:32:59.033Z,71.3
2023-02-22T01:35:25.738Z,71.4
2023-02-22T01:37:52.403Z,70.9
2023-02-22T01:40:19.092Z,70.8
2023-02-22T01:42:45.784Z,70.7
2023-02-22T01:45:12.454Z,71
2023-02-22T01:47:39.143Z,70.5
2023-02-22T01:50:05.826Z,69.9
2023-02-22T01:54:59.198Z,68.6
2023-02-22T01:57:24.458Z,69.2
2023-02-22T01:59:49.669Z,69.8
2023-02-22T02:02:16.361Z,69.9
2023-02-22T02:04:43.046Z,69.9
2023-02-22T02:07:09.740Z,69.9
2023-02-22T02:09:36.396Z,69.7
2023-02-22T02:12:03.086Z,70
2023-02-22T02:16:56.476Z,70.3
2023-02-22T02:19:23.161Z,70.6
2023-02-22T02:21:49.850Z,69.4
2023-02-22T02:24:16.520Z,69.8
2023-02-22T02:26:43.214Z,70.2
2023-02-22T02:29:09.894Z,71
2023-02-22T02:31:35.106Z,71.3
2023-02-22T02:34:01.808Z,71.7
2023-02-22T02:36:28.488Z,71.1
2023-02-22T02:38:55.204Z,70.6
2023-02-22T02:41:21.880Z,70.7
2023-02-22T02:43:48.530Z,70.6
2023-02-22T02:46:15.226Z,70.5
2023-02-22T02:48:41.917Z,70.1
2023-02-22T02:51:08.586Z,70.3
2023-02-22T02:53:33.846Z,70.5
2023-02-22T02:55:59.076Z,70.6
2023-02-22T02:58:25.751Z,70
2023-02-22T03:00:52.449Z,70.3
2023-02-22T03:03:19.130Z,70.2
2023-02-22T03:05:45.812Z,69.2
2023-02-22T03:08:12.503Z,69.5
2023-02-22T03:10:39.192Z,69.6
2023-02-22T03:15:32.557Z,69.5
2023-02-22T03:17:59.276Z,69.9
2023-02-22T03:20:25.934Z,69.8
2023-02-22T03:22:52.609Z,69.4
2023-02-22T03:25:19.302Z,69.2
2023-02-22T03:27:44.525Z,69.3
2023-02-22T03:30:11.220Z,69.2
2023-02-22T03:32:37.898Z,69.3
2023-02-22T03:35:04.611Z,69.3
2023-02-22T03:37:31.270Z,69.3
2023-02-22T03:39:57.969Z,69.2
2023-02-22T03:42:24.647Z,69.2
2023-02-22T03:44:51.331Z,69
2023-02-22T03:47:18.007Z,68.8
2023-02-22T03:49:44.686Z,69.1
2023-02-22T03:52:11.382Z,68.9
2023-02-22T03:54:36.617Z,69.3
2023-02-22T03:57:03.304Z,69.9
2023-02-22T03:59:29.986Z,69.9
2023-02-22T04:01:56.679Z,70.4
2023-02-22T04:04:23.349Z,70.6
2023-02-22T04:06:50.026Z,70.7
2023-02-22T04:09:16.733Z,71.1
2023-02-22T04:14:10.098Z,70.9
2023-02-22T04:16:36.780Z,70.3
2023-02-22T04:19:03.468Z,70.7
2023-02-22T04:21:30.159Z,70.2
2023-02-22T04:23:56.832Z,70.7
2023-02-22T04:26:23.522Z,70.7
2023-02-22T04:28:48.736Z,70.2
2023-02-22T04:31:15.430Z,68.8
2023-02-22T04:33:42.120Z,69.2
2023-02-22T04:36:08.804Z,69.7
2023-02-22T04:38:35.477Z,69.6
2023-02-22T04:41:02.184Z,69.9
2023-02-22T04:43:28.862Z,70.2
2023-02-22T04:45:55.535Z,70.5
2023-02-22T04:48:22.241Z,70.7
2023-02-22T04:50:48.912Z,71
2023-02-22T04:53:15.624Z,70.9
2023-02-22T04:55:42.297Z,70.1
2023-02-22T04:58:08.970Z,70.1
2023-02-22T05:00:35.655Z,70.4
2023-02-22T05:03:02.336Z,70.7
2023-02-22T05:05:27.569Z,70.5
2023-02-22T05:07:54.298Z,70.2
2023-02-22T05:10:20.939Z,70.3
2023-02-22T05:12:47.698Z,70.6
2023-02-22T05:15:14.301Z,70.6
2023-02-22T05:17:40.989Z,70.6
2023-02-22T05:20:07.663Z,70.4
2023-02-22T05:22:34.363Z,70.4
2023-02-22T05:25:01.046Z,70.3
2023-02-22T05:27:27.724Z,69.8
2023-02-22T05:29:54.455Z,69.8
2023-02-22T05:32:21.104Z,69.8
2023-02-22T05:34:47.790Z,69.6
2023-02-22T05:37:13.019Z,69.6
2023-02-22T05:39:39.704Z,69.5
2023-02-22T05:42:06.380Z,69.5
2023-02-22T05:44:33.061Z,69.3
2023-02-22T05:46:59.747Z,69.1
2023-02-22T05:49:26.436Z,69.3
2023-02-22T05:51:53.120Z,69.2
2023-02-22T05:54:19.808Z,68.7
2023-02-22T05:56:46.539Z,69
2023-02-22T05:59:13.175Z,69
2023-02-22T06:04:06.537Z,69.5
2023-02-22T06:06:33.234Z,70
2023-02-22T06:08:59.921Z,70.1
2023-02-22T06:11:25.142Z,70.2
2023-02-22T06:13:51.821Z,69.9
2023-02-22T06:16:18.510Z,69.6
2023-02-22T06:18:45.194Z,69.7
2023-02-22T06:21:11.874Z,69.5
2023-02-22T06:23:38.580Z,69.4
2023-02-22T06:26:05.243Z,69.5
2023-02-22T06:28:31.943Z,69.5
2023-02-22T06:30:58.618Z,69.4
2023-02-22T06:33:25.300Z,69.3
2023-02-22T06:35:51.975Z,69.2
2023-02-22T06:38:18.664Z,69
2023-02-22T06:40:45.371Z,69
2023-02-22T06:43:12.056Z,69
2023-02-22T06:45:38.730Z,68.7
2023-02-22T06:48:05.411Z,68.6
2023-02-22T06:50:32.099Z,68.8
2023-02-22T06:52:58.798Z,68.9
2023-02-22T06:55:25.480Z,68.9
2023-02-22T06:57:50.691Z,68.3
2023-02-22T07:00:17.366Z,68.2
2023-02-22T07:02:44.054Z,69.3
2023-02-22T07:05:10.769Z,69.9
2023-02-22T07:07:37.428Z,73.5
2023-02-22T07:12:30.806Z,96.1
2023-02-22T07:14:57.496Z,100
2023-02-22T07:17:24.172Z,100
2023-02-22T07:19:50.861Z,100
2023-02-22T07:22:17.542Z,100
2023-02-22T07:24:44.229Z,100
2023-02-22T07:29:37.604Z,92.4
2023-02-22T07:32:02.829Z,82
2023-02-22T07:34:29.511Z,73.8
2023-02-22T07:36:56.195Z,71.3
2023-02-22T07:39:22.882Z,71.2
2023-02-22T07:41:49.583Z,67.5
2023-02-22T07:44:16.255Z,68.1
2023-02-22T07:46:42.930Z,69.5
2023-02-22T07:49:09.626Z,71.4
2023-02-22T07:54:02.993Z,76.6
2023-02-22T07:56:28.247Z,81.3
2023-02-22T07:58:54.937Z,84.5
2023-02-22T08:01:20.276Z,78
2023-02-22T08:03:46.840Z,72.4
2023-02-22T08:06:13.527Z,67.5
2023-02-22T08:08:40.186Z,68.2
2023-02-22T08:11:06.886Z,69
2023-02-22T08:13:33.630Z,65.4
2023-02-22T08:16:00.270Z,66.7
2023-02-22T08:18:26.957Z,68.6
2023-02-22T08:20:53.636Z,70.8
2023-02-22T08:23:18.879Z,72.1
2023-02-22T08:25:44.106Z,70.5
2023-02-22T08:30:37.470Z,74
2023-02-22T08:33:04.156Z,73.4
2023-02-22T08:35:30.851Z,66.1
2023-02-22T08:37:57.604Z,64
2023-02-22T08:40:24.301Z,62
2023-02-22T08:42:50.894Z,63.3
2023-02-22T08:45:17.711Z,63.7
2023-02-22T08:47:44.266Z,59.7
2023-02-22T08:50:10.968Z,60
2023-02-22T08:52:37.638Z,59.4
2023-02-22T08:55:04.526Z,58.4
2023-02-22T08:57:29.538Z,57.1
2023-02-22T08:59:56.261Z,55.2
2023-02-22T09:02:22.931Z,53.1
2023-02-22T09:04:49.599Z,53.1
2023-02-22T09:07:16.380Z,51.7
2023-02-22T09:09:43.095Z,49.6
2023-02-22T09:12:09.774Z,48.8
2023-02-22T09:14:36.493Z,48.5
2023-02-22T09:17:03.191Z,47.4
2023-02-22T09:21:56.394Z,47.5
2023-02-22T09:24:23.076Z,47.2
2023-02-22T09:26:53.292Z,48.3
2023-02-22T09:29:16.585Z,48
2023-02-22T09:31:43.139Z,47
2023-02-22T09:34:08.368Z,48.4
2023-02-22T09:39:01.812Z,49.5
2023-02-22T09:41:28.564Z,50.8
2023-02-22T09:43:55.121Z,50.5
2023-02-22T09:46:21.776Z,51.3
2023-02-22T09:48:48.486Z,50
2023-02-22T09:51:15.182Z,51.4
2023-02-22T09:53:41.834Z,50.9
2023-02-22T09:56:08.526Z,52
2023-02-22T09:58:35.200Z,52.3
2023-02-22T10:01:01.920Z,53.1
2023-02-22T10:03:28.573Z,53.4
2023-02-22T10:05:53.822Z,54
2023-02-22T10:08:20.480Z,56
2023-02-22T10:10:47.184Z,57.5
2023-02-22T10:13:13.843Z,58.7
2023-02-22T10:15:40.667Z,62.3
2023-02-22T10:20:33.910Z,63.9
2023-02-22T10:25:27.366Z,64
2023-02-22T10:27:52.533Z,64.4
2023-02-22T10:30:19.208Z,63.5
2023-02-22T10:32:44.420Z,63.3
2023-02-22T10:35:11.122Z,62.9
2023-02-22T10:37:37.814Z,62.6
2023-02-22T10:40:04.480Z,62.7
2023-02-22T10:42:31.166Z,62.6
2023-02-22T10:44:57.850Z,62.9
2023-02-22T10:49:51.238Z,62.1
2023-02-22T10:52:17.917Z,61.6
2023-02-22T10:54:44.612Z,62.8
2023-02-22T10:57:11.285Z,62.2
2023-02-22T10:59:38.002Z,61.7
2023-02-22T11:02:04.655Z,61
2023-02-22T11:04:31.344Z,61.7
2023-02-22T11:06:58.061Z,60.5
2023-02-22T11:09:24.744Z,59.6
2023-02-22T11:11:49.960Z,58.8
2023-02-22T11:14:16.612Z,58.5
2023-02-22T11:19:10.084Z,57.4
2023-02-22T11:21:36.700Z,57.7
2023-02-22T11:24:03.384Z,55.7
2023-02-22T11:26:30.035Z,56.8
2023-02-22T11:28:56.908Z,57
2023-02-22T11:33:50.124Z,55.2
2023-02-22T11:36:15.353Z,52.6
2023-02-22T11:38:40.624Z,55.6
2023-02-22T11:41:07.248Z,56.9
2023-02-22T11:43:33.932Z,56.8
2023-02-22T11:48:27.346Z,58.8
2023-02-22T11:50:53.980Z,58.6
2023-02-22T11:55:47.357Z,59.5
2023-02-22T11:58:14.239Z,60.3
2023-02-22T12:03:07.448Z,60.1
2023-02-22T12:05:34.111Z,59.2
2023-02-22T12:07:59.348Z,59.3
2023-02-22T12:10:26.050Z,59.8
2023-02-22T12:12:52.694Z,60.3
2023-02-22T12:17:46.175Z,60.1
2023-02-22T12:20:12.760Z,59.3
2023-02-22T12:22:39.465Z,58.7
2023-02-22T12:25:06.120Z,58
2023-02-22T12:27:32.807Z,57.9
2023-02-22T12:29:59.508Z,57.8
2023-02-22T12:32:26.186Z,57.9
2023-02-22T12:34:52.864Z,57.6
2023-02-22T12:37:19.731Z,57.8
2023-02-22T12:39:44.767Z,57.5
2023-02-22T12:42:11.463Z,56.6
2023-02-22T12:44:38.181Z,58.4
2023-02-22T12:47:04.874Z,58.3
2023-02-22T12:49:31.580Z,58.6
2023-02-22T12:51:58.194Z,59.5
2023-02-22T12:54:23.452Z,59.2
2023-02-22T12:56:48.700Z,60.2
2023-02-22T12:59:15.365Z,60.5
2023-02-22T13:01:42.060Z,57.9
2023-02-22T13:04:08.710Z,59.1
2023-02-22T13:06:35.466Z,57.9
2023-02-22T13:11:28.839Z,58.9
2023-02-22T13:18:48.822Z,57.4
2023-02-22T13:21:15.522Z,56.5
2023-02-22T13:23:42.442Z,56.2
2023-02-22T13:26:09.039Z,56
2023-02-22T13:31:00.825Z,56.6
2023-02-22T13:33:26.193Z,56.6
2023-02-22T13:35:51.286Z,59.7
2023-02-22T13:38:17.972Z,55.1
2023-02-22T13:45:38.025Z,58.9
2023-02-22T13:48:04.774Z,57.5
2023-02-22T13:50:31.395Z,55.6
2023-02-22T13:52:58.076Z,58.3
2023-02-22T13:55:24.760Z,57.7
2023-02-22T13:57:51.445Z,57.9
2023-02-22T14:00:18.145Z,57.1
2023-02-22T14:02:44.828Z,57
2023-02-22T14:07:38.181Z,59
2023-02-22T14:10:04.956Z,58.7
2023-02-22T14:14:56.821Z,58.6
2023-02-22T14:17:23.443Z,60
2023-02-22T14:19:50.133Z,59.3
2023-02-22T14:22:16.823Z,61.8
2023-02-22T14:24:43.510Z,60.9
2023-02-22T14:27:10.192Z,60.3
2023-02-22T14:29:36.946Z,61.1
2023-02-22T14:32:03.605Z,61.2
2023-02-22T14:34:30.249Z,61.4
2023-02-22T14:36:56.952Z,59.9
2023-02-22T14:39:23.602Z,59.4
2023-02-22T14:44:17.031Z,60
2023-02-22T14:46:42.231Z,61.5
2023-02-22T14:49:08.893Z,61.5
2023-02-22T14:51:35.644Z,60.9
2023-02-22T14:58:55.642Z,61.7
2023-02-22T15:01:22.302Z,61
2023-02-22T15:03:49.013Z,64.6
2023-02-22T15:08:42.455Z,61.8
2023-02-22T15:13:35.827Z,62.4
2023-02-22T15:16:02.425Z,63.8
2023-02-22T15:20:54.325Z,62.6
2023-02-22T15:23:21.065Z,63.7
2023-02-22T15:25:47.732Z,63.6
2023-02-22T15:28:14.488Z,65.5
2023-02-22T15:30:41.216Z,68
2023-02-22T15:33:07.772Z,66.1
2023-02-22T15:35:34.462Z,65.5
2023-02-22T15:38:01.164Z,67.8
2023-02-22T15:45:21.156Z,69.4
2023-02-22T15:47:47.850Z,68.5
2023-02-22T15:50:13.068Z,69
2023-02-22T15:52:39.761Z,69.6
2023-02-22T15:55:06.455Z,69.3
2023-02-22T15:57:33.127Z,69
2023-02-22T15:59:59.799Z,68.9
2023-02-22T16:02:26.498Z,70.3
2023-02-22T16:04:53.303Z,70.8
2023-02-22T16:12:13.255Z,72.2
2023-02-22T16:14:39.925Z,71.8
2023-02-22T16:17:06.602Z,71.9
2023-02-22T16:19:33.303Z,72
2023-02-22T16:21:58.505Z,73.4
2023-02-22T16:26:51.873Z,74.1
2023-02-22T16:29:18.545Z,75.5
2023-02-22T16:31:45.261Z,75.2
2023-02-22T16:34:12.148Z,75.9
2023-02-22T16:36:38.768Z,76.1
2023-02-22T16:39:05.297Z,77.3
2023-02-22T16:41:31.991Z,77.2
2023-02-22T16:43:58.663Z,77.4
2023-02-22T16:46:25.388Z,77.9
2023-02-22T16:48:52.205Z,81
2023-02-22T16:51:18.819Z,85.4
2023-02-22T16:56:10.629Z,85.8
2023-02-22T16:58:37.300Z,86.8
2023-02-22T17:01:03.987Z,86.8
2023-02-22T17:03:30.708Z,86.9
2023-02-22T17:05:57.349Z,92.2
2023-02-22T17:10:50.719Z,95.9
2023-02-22T17:13:17.402Z,100
2023-02-22T17:15:44.102Z,100
2023-02-22T17:18:10.779Z,100
2023-02-22T17:20:37.465Z,100
2023-02-22T17:23:04.190Z,100
2023-02-22T17:25:29.410Z,100
2023-02-22T17:27:56.049Z,100
2023-02-22T17:30:22.756Z,100
2023-02-22T17:32:49.414Z,100
2023-02-22T17:35:16.114Z,100
2023-02-22T17:40:09.495Z,100
2023-02-22T17:42:36.142Z,100
2023-02-22T17:47:29.524Z,100
2023-02-22T17:49:56.204Z,100
2023-02-22T17:54:49.672Z,100
2023-02-22T17:57:14.816Z,100
2023-02-22T17:59:41.477Z,100
2023-02-22T18:02:08.166Z,100
2023-02-22T18:04:34.860Z,100
2023-02-22T18:09:28.219Z,100
2023-02-22T18:11:54.902Z,100
2023-02-22T18:14:21.606Z,100
2023-02-22T18:16:48.276Z,100
2023-02-22T18:19:14.954Z,100
2023-02-22T18:21:41.736Z,100
2023-02-22T18:26:35.027Z,100
2023-02-22T18:29:00.246Z,100
2023-02-22T18:31:26.949Z,100
2023-02-22T18:33:53.632Z,100
2023-02-22T18:36:20.285Z,100
2023-02-22T18:38:46.957Z,100
2023-02-22T18:41:13.641Z,100
2023-02-22T18:43:40.339Z,100
2023-02-22T18:48:33.729Z,100
2023-02-22T18:53:27.076Z,100
2023-02-22T18:55:53.764Z,100
2023-02-22T18:58:20.455Z,100
2023-02-22T19:00:47.142Z,100
2023-02-22T19:03:12.350Z,100
2023-02-22T19:05:39.033Z,100
2023-02-22T19:08:05.728Z,100
2023-02-22T19:10:32.407Z,100
2023-02-22T19:12:59.097Z,100
2023-02-22T19:17:52.468Z,100
2023-02-22T19:22:45.830Z,100
2023-02-22T19:25:12.615Z,100
2023-02-22T19:27:39.194Z,100
2023-02-22T19:30:05.872Z,100
2023-02-22T19:32:32.602Z,100
2023-02-22T19:34:57.789Z,100
2023-02-22T19:37:24.581Z,100
2023-02-22T19:39:51.159Z,100
2023-02-22T19:42:17.849Z,98.6
2023-02-22T19:47:11.238Z,99.4
2023-02-22T19:49:37.921Z,98.6
2023-02-22T19:52:04.685Z,97.3
2023-02-22T19:54:31.286Z,98.1
2023-02-22T19:56:58.148Z,96.9
2023-02-22T19:59:24.657Z,96.1
2023-02-22T20:01:51.311Z,96.8
2023-02-22T20:04:18.037Z,98.9
2023-02-22T20:06:44.686Z,97.5
2023-02-22T20:09:09.912Z,97.1
2023-02-22T20:11:36.588Z,96.4
2023-02-22T20:14:03.305Z,95
2023-02-22T20:16:28.534Z,95.1
2023-02-22T20:18:53.807Z,93.2
2023-02-22T20:21:20.455Z,95.2
2023-02-22T20:23:47.139Z,95.4
2023-02-22T20:26:13.824Z,94.7
2023-02-22T20:28:40.501Z,95.2
2023-02-22T20:31:07.187Z,95.4
2023-02-22T20:33:33.876Z,95.3
2023-02-22T20:36:00.636Z,95.5
2023-02-22T20:38:27.312Z,94.4
2023-02-22T20:40:53.931Z,93.5
2023-02-22T20:43:20.629Z,93
2023-02-22T20:45:45.865Z,92.3
2023-02-22T20:48:11.102Z,92.3
2023-02-22T20:50:37.775Z,91.2
2023-02-22T20:53:04.545Z,90.2
2023-02-22T20:55:31.154Z,90.7
2023-02-22T20:57:57.835Z,90.5
2023-02-22T21:00:24.599Z,89.7
2023-02-22T21:05:17.901Z,88.5
2023-02-22T21:07:44.634Z,87.5
2023-02-22T21:10:11.259Z,88.2
2023-02-22T21:12:38.006Z,89.5
2023-02-22T21:15:04.638Z,91.2
2023-02-22T21:17:31.349Z,90.5
2023-02-22T21:19:58.022Z,90.1
2023-02-22T21:22:23.229Z,90.3
2023-02-22T21:24:49.995Z,91.3
2023-02-22T21:27:16.685Z,90.3
2023-02-22T21:29:43.282Z,88.7
2023-02-22T21:34:36.654Z,86.6
2023-02-22T21:37:01.906Z,87.8
2023-02-22T21:39:27.278Z,90.1
2023-02-22T21:41:53.855Z,91.4
2023-02-22T21:44:20.564Z,87.7
2023-02-22T21:46:47.182Z,84.3
2023-02-22T21:49:13.886Z,86.4
2023-02-22T21:51:40.601Z,89.3
2023-02-22T21:54:07.252Z,89.9
2023-02-22T21:56:33.940Z,85.4
2023-02-22T21:59:00.620Z,84.2
2023-02-22T22:03:53.975Z,86
2023-02-22T22:06:20.666Z,87.3
2023-02-22T22:08:47.402Z,85.8
2023-02-22T22:11:12.586Z,86.3
2023-02-22T22:13:39.283Z,83.4
2023-02-22T22:16:05.935Z,80.6
2023-02-22T22:18:32.629Z,79.6
2023-02-22T22:20:59.305Z,81.6
2023-02-22T22:23:26.072Z,83.7
2023-02-22T22:25:52.694Z,83.4
2023-02-22T22:28:19.353Z,83.1
2023-02-22T22:30:44.682Z,83.5
2023-02-22T22:33:11.302Z,82.3
2023-02-22T22:35:36.533Z,82.9
2023-02-22T22:38:03.208Z,83
2023-02-22T22:40:29.890Z,81.8
2023-02-22T22:42:56.651Z,79.7
2023-02-22T22:47:49.962Z,77.5
2023-02-22T22:50:16.643Z,79.3
2023-02-22T22:52:43.380Z,80.7
2023-02-22T22:55:09.997Z,81.2
2023-02-22T22:57:36.672Z,80.3
2023-02-22T23:00:03.365Z,79.1
2023-02-22T23:02:30.057Z,77.5
2023-02-22T23:04:56.816Z,75.7
2023-02-22T23:09:48.645Z,74.1
2023-02-22T23:12:13.913Z,75
2023-02-22T23:14:39.168Z,76.4
2023-02-22T23:19:32.518Z,76.2
2023-02-22T23:21:59.174Z,76.3
2023-02-22T23:24:25.919Z,76.8
2023-02-22T23:26:52.593Z,76.3
2023-02-22T23:29:19.358Z,75.4
2023-02-22T23:31:45.940Z,75.2
2023-02-22T23:34:12.664Z,74
2023-02-22T23:36:39.287Z,73.5
2023-02-22T23:39:05.981Z,72.6
2023-02-22T23:41:32.662Z,71.1
2023-02-22T23:43:59.367Z,71.4
2023-02-22T23:46:24.562Z,72.9
2023-02-22T23:48:51.281Z,74.3
2023-02-22T23:51:18.029Z,74.5
2023-02-22T23:53:44.605Z,74.3
2023-02-22T23:56:11.293Z,74.2
2023-02-22T23:58:37.971Z,73.6
